createdAt,value
2023-04-26T05:03:12.577Z,500.00
2023-04-26T05:04:13.578Z,500.00
2023-04-26T05:05:12.579Z,500.00
2023-04-26T05:06:13.447Z,500.00
2023-04-26T05:07:13.488Z,500.00
2023-04-26T05:08:13.490Z,500.00
2023-04-26T05:09:12.600Z,400.00
2023-04-26T05:10:13.595Z,400.00
2023-04-26T05:11:13.643Z,400.00
2023-04-26T05:12:13.668Z,400.00
2023-04-26T05:13:12.666Z,400.00
2023-04-26T05:14:12.668Z,400.00
2023-04-26T05:15:13.675Z,400.00
2023-04-26T05:16:13.732Z,400.00
2023-04-26T05:17:13.721Z,400.00
2023-04-26T05:18:13.745Z,400.00
2023-04-26T05:19:12.710Z,400.00
2023-04-26T05:20:13.691Z,400.00
2023-04-26T05:21:13.692Z,400.00
2023-04-26T05:22:13.696Z,400.00
2023-04-26T05:23:13.757Z,400.00
2023-04-26T05:24:13.694Z,400.00
2023-04-26T05:25:13.704Z,400.00
2023-04-26T05:26:13.707Z,400.00
2023-04-26T05:27:12.713Z,421.00
2023-04-26T05:28:13.705Z,459.00
2023-04-26T05:29:12.727Z,500.00
2023-04-26T05:30:13.690Z,504.00
2023-04-26T05:31:13.698Z,500.00
2023-04-26T05:32:12.751Z,500.00
2023-04-26T05:33:13.774Z,502.00
2023-04-26T05:34:13.679Z,500.00
2023-04-26T05:35:12.730Z,500.00
2023-04-26T05:36:13.695Z,503.00
2023-04-26T05:37:13.675Z,499.00
2023-04-26T05:38:13.677Z,500.00
2023-04-26T05:39:13.685Z,500.00
2023-04-26T05:40:13.679Z,501.00
2023-04-26T05:41:12.666Z,500.00
2023-04-26T05:42:15.153Z,510.00
2023-04-26T05:43:12.681Z,511.00
2023-04-26T05:44:12.678Z,500.00
2023-04-26T05:45:13.657Z,502.00
2023-04-26T05:46:13.681Z,502.00
2023-04-26T05:47:12.645Z,501.00
2023-04-26T05:48:12.772Z,503.00
2023-04-26T05:49:13.630Z,500.00
2023-04-26T05:50:13.711Z,510.00
2023-04-26T05:51:13.627Z,501.00
2023-04-26T05:52:12.614Z,503.00
2023-04-26T05:53:12.602Z,505.00
2023-04-26T05:54:12.590Z,505.00
2023-04-26T05:55:13.602Z,502.00
2023-04-26T05:56:13.619Z,502.00
2023-04-26T05:57:12.642Z,505.00
2023-04-26T05:58:13.573Z,503.00
2023-04-26T05:59:13.551Z,507.00
2023-04-26T06:00:13.559Z,501.00
2023-04-26T06:01:13.536Z,503.00
2023-04-26T06:02:13.618Z,507.00
2023-04-26T06:03:14.085Z,505.00
2023-04-26T06:04:13.726Z,504.00
2023-04-26T06:05:13.634Z,502.00
2023-04-26T06:06:13.519Z,501.00
2023-04-26T06:07:13.550Z,511.00
2023-04-26T06:08:13.487Z,506.00
2023-04-26T06:09:12.534Z,505.00
2023-04-26T06:10:13.487Z,505.00
2023-04-26T06:11:12.474Z,505.00
2023-04-26T06:12:13.482Z,503.00
2023-04-26T06:13:13.469Z,505.00
2023-04-26T06:14:28.905Z,503.00
2023-04-26T06:15:13.441Z,503.00
2023-04-26T06:16:13.499Z,505.00
2023-04-26T06:17:12.463Z,505.00
2023-04-26T06:18:13.521Z,503.00
2023-04-26T06:19:12.435Z,504.00
2023-04-26T06:20:12.407Z,503.00
2023-04-26T06:21:13.413Z,505.00
2023-04-26T06:22:13.452Z,505.00
2023-04-26T06:23:12.423Z,510.00
2023-04-26T06:24:13.387Z,507.00
2023-04-26T06:25:13.385Z,502.00
2023-04-26T06:26:12.388Z,503.00
2023-04-26T06:27:13.385Z,507.00
2023-04-26T06:28:13.415Z,507.00
2023-04-26T06:29:13.358Z,509.00
2023-04-26T06:30:12.368Z,512.00
2023-04-26T06:31:12.410Z,500.00
2023-04-26T06:32:13.449Z,507.00
2023-04-26T06:33:13.361Z,507.00
2023-04-26T06:34:14.373Z,503.00
2023-04-26T06:35:13.342Z,502.00
2023-04-26T06:36:12.304Z,505.00
2023-04-26T06:37:13.306Z,506.00
2023-04-26T06:38:13.310Z,504.00
2023-04-26T06:39:13.309Z,505.00
2023-04-26T06:40:13.294Z,511.00
2023-04-26T06:41:13.288Z,507.00
2023-04-26T06:42:12.266Z,505.00
2023-04-26T06:43:13.293Z,506.00
2023-04-26T06:44:13.246Z,506.00
2023-04-26T06:45:13.271Z,503.00
2023-04-26T06:46:13.248Z,503.00
2023-04-26T06:47:13.268Z,505.00
2023-04-26T06:48:13.226Z,508.00
2023-04-26T06:49:13.225Z,504.00
2023-04-26T06:50:12.241Z,508.00
2023-04-26T06:51:13.253Z,505.00
2023-04-26T06:52:13.225Z,506.00
2023-04-26T06:53:12.378Z,506.00
2023-04-26T06:54:13.238Z,505.00
2023-04-26T06:55:12.292Z,506.00
2023-04-26T06:56:13.252Z,506.00
2023-04-26T06:57:13.283Z,504.00
2023-04-26T06:58:13.390Z,506.00
2023-04-26T06:59:13.291Z,510.00
2023-04-26T07:00:13.405Z,509.00
2023-04-26T07:01:13.366Z,506.00
2023-04-26T07:02:13.350Z,510.00
2023-04-26T07:03:13.427Z,509.00
2023-04-26T07:04:13.444Z,517.00
2023-04-26T07:05:13.534Z,510.00
2023-04-26T07:06:13.335Z,513.00
2023-04-26T07:07:13.854Z,509.00
2023-04-26T07:08:12.335Z,510.00
2023-04-26T07:09:13.308Z,509.00
2023-04-26T07:10:13.289Z,507.00
2023-04-26T07:11:12.318Z,508.00
2023-04-26T07:12:12.284Z,508.00
2023-04-26T07:13:13.282Z,510.00
2023-04-26T07:14:13.302Z,508.00
2023-04-26T07:15:13.257Z,504.00
2023-04-26T07:16:13.312Z,512.00
2023-04-26T07:17:13.256Z,506.00
2023-04-26T07:18:13.273Z,508.00
2023-04-26T07:19:13.246Z,507.00
2023-04-26T07:20:13.280Z,508.00
2023-04-26T07:21:13.244Z,509.00
2023-04-26T07:22:13.413Z,513.00
2023-04-26T07:23:12.214Z,506.00
2023-04-26T07:24:13.207Z,512.00
2023-04-26T07:25:12.195Z,507.00
2023-04-26T07:26:13.232Z,514.00
2023-04-26T07:27:12.205Z,510.00
2023-04-26T07:28:12.186Z,508.00
2023-04-26T07:29:13.180Z,512.00
2023-04-26T07:30:12.173Z,505.00
2023-04-26T07:31:13.158Z,508.00
2023-04-26T07:32:13.216Z,507.00
2023-04-26T07:33:13.265Z,511.00
2023-04-26T07:34:13.146Z,508.00
2023-04-26T07:35:13.129Z,515.00
2023-04-26T07:36:13.119Z,511.00
2023-04-26T07:37:12.115Z,507.00
2023-04-26T07:38:13.146Z,511.00
2023-04-26T07:39:12.115Z,514.00
2023-04-26T07:40:12.095Z,506.00
2023-04-26T07:41:13.145Z,505.00
2023-04-26T07:42:13.092Z,515.00
2023-04-26T07:43:13.170Z,511.00
2023-04-26T07:44:13.071Z,510.00
2023-04-26T07:45:13.125Z,518.00
2023-04-26T07:46:12.124Z,516.00
2023-04-26T07:47:13.064Z,513.00
2023-04-26T07:48:13.533Z,513.00
2023-04-26T07:49:13.037Z,511.00
2023-04-26T07:50:12.016Z,517.00
2023-04-26T07:51:13.063Z,513.00
2023-04-26T07:52:13.004Z,513.00
2023-04-26T07:53:13.422Z,516.00
2023-04-26T07:54:13.046Z,520.00
2023-04-26T07:55:12.061Z,514.00
2023-04-26T07:56:13.114Z,515.00
2023-04-26T07:57:13.038Z,516.00
2023-04-26T07:58:13.134Z,524.00
2023-04-26T07:59:13.142Z,525.00
2023-04-26T08:00:13.113Z,529.00
2023-04-26T08:01:12.152Z,531.00
2023-04-26T08:02:13.464Z,531.00
2023-04-26T08:03:12.449Z,537.00
2023-04-26T08:04:13.499Z,541.00
2023-04-26T08:05:13.630Z,546.00
2023-04-26T08:06:13.506Z,548.00
2023-04-26T08:07:13.430Z,553.00
2023-04-26T08:08:13.494Z,552.00
2023-04-26T08:09:12.534Z,553.00
2023-04-26T08:10:12.612Z,549.00
2023-04-26T08:11:13.649Z,561.00
2023-04-26T08:12:13.904Z,565.00
2023-04-26T08:13:13.785Z,563.00
2023-04-26T08:14:13.849Z,568.00
2023-04-26T08:15:13.031Z,566.00
2023-04-26T08:16:14.024Z,569.00
2023-04-26T08:17:14.056Z,571.00
2023-04-26T08:18:14.092Z,576.00
2023-04-26T08:19:14.156Z,576.00
2023-04-26T08:20:14.197Z,575.00
2023-04-26T08:21:14.290Z,573.00
2023-04-26T08:22:13.305Z,584.00
2023-04-26T08:23:14.408Z,582.00
2023-04-26T08:24:14.493Z,584.00
2023-04-26T08:25:14.511Z,585.00
2023-04-26T08:26:13.573Z,588.00
2023-04-26T08:27:14.592Z,588.00
2023-04-26T08:28:14.632Z,592.00
2023-04-26T08:29:14.718Z,583.00
2023-04-26T08:30:14.749Z,592.00
2023-04-26T08:31:16.990Z,596.00
2023-04-26T08:32:14.790Z,604.00
2023-04-26T08:33:14.807Z,602.00
2023-04-26T08:34:14.791Z,601.00
2023-04-26T08:35:14.789Z,603.00
2023-04-26T08:36:13.808Z,603.00
2023-04-26T08:37:14.776Z,607.00
2023-04-26T08:38:13.781Z,611.00
2023-04-26T08:39:13.766Z,612.00
2023-04-26T08:40:14.845Z,615.00
2023-04-26T08:41:13.752Z,610.00
2023-04-26T08:42:14.744Z,602.00
2023-04-26T08:43:13.732Z,605.00
2023-04-26T08:44:14.718Z,604.00
2023-04-26T08:45:14.724Z,603.00
2023-04-26T08:46:13.766Z,604.00
2023-04-26T08:47:14.917Z,608.00
2023-04-26T08:48:14.915Z,614.00
2023-04-26T08:49:14.693Z,618.00
2023-04-26T08:50:14.721Z,613.00
2023-04-26T08:51:13.679Z,627.00
2023-04-26T08:52:13.738Z,619.00
2023-04-26T08:53:14.666Z,624.00
2023-04-26T08:54:13.655Z,626.00
2023-04-26T08:55:14.658Z,630.00
2023-04-26T08:56:14.686Z,634.00
2023-04-26T08:57:14.661Z,628.00
2023-04-26T08:58:13.605Z,631.00
2023-04-26T08:59:15.187Z,638.00
2023-04-26T09:00:14.596Z,635.00
2023-04-26T09:01:14.702Z,635.00
2023-04-26T09:02:13.802Z,644.00
2023-04-26T09:03:14.235Z,645.00
2023-04-26T09:04:14.975Z,642.00
2023-04-26T09:05:14.998Z,647.00
2023-04-26T09:06:14.927Z,646.00
2023-04-26T09:07:15.002Z,648.00
2023-04-26T09:08:14.045Z,652.00
2023-04-26T09:09:14.121Z,646.00
2023-04-26T09:10:14.178Z,653.00
2023-04-26T09:11:15.251Z,652.00
2023-04-26T09:12:15.308Z,654.00
2023-04-26T09:13:14.454Z,651.00
2023-04-26T09:14:15.428Z,652.00
2023-04-26T09:15:14.511Z,649.00
2023-04-26T09:16:15.627Z,653.00
2023-04-26T09:17:16.434Z,653.00
2023-04-26T09:18:15.710Z,652.00
2023-04-26T09:19:15.762Z,660.00
2023-04-26T09:20:15.876Z,655.00
2023-04-26T09:21:15.856Z,659.00
2023-04-26T09:22:15.926Z,657.00
2023-04-26T09:23:16.009Z,660.00
2023-04-26T09:24:15.065Z,656.00
2023-04-26T09:25:15.148Z,661.00
2023-04-26T09:26:15.225Z,664.00
2023-04-26T09:27:16.212Z,663.00
2023-04-26T09:28:16.282Z,661.00
2023-04-26T09:29:15.332Z,660.00
2023-04-26T09:30:16.428Z,665.00
2023-04-26T09:31:16.505Z,661.00
2023-04-26T09:32:15.547Z,660.00
2023-04-26T09:33:16.629Z,662.00
2023-04-26T09:34:16.706Z,660.00
2023-04-26T09:35:16.700Z,662.00
2023-04-26T09:36:16.777Z,659.00
2023-04-26T09:37:16.833Z,668.00
2023-04-26T09:38:16.886Z,662.00
2023-04-26T09:39:16.984Z,663.00
2023-04-26T09:40:17.008Z,664.00
2023-04-26T09:41:16.085Z,665.00
2023-04-26T09:42:16.196Z,662.00
2023-04-26T09:43:16.224Z,662.00
2023-04-26T09:44:17.274Z,665.00
2023-04-26T09:45:17.319Z,665.00
2023-04-26T09:46:16.410Z,661.00
2023-04-26T09:47:17.434Z,664.00
2023-04-26T09:48:16.559Z,660.00
2023-04-26T09:49:17.950Z,664.00
2023-04-26T09:50:17.661Z,657.00
2023-04-26T09:51:17.696Z,661.00
2023-04-26T09:52:17.788Z,657.00
2023-04-26T09:53:17.830Z,659.00
2023-04-26T09:54:16.870Z,666.00
2023-04-26T09:55:31.170Z,664.00
2023-04-26T09:56:17.985Z,665.00
2023-04-26T09:57:17.889Z,666.00
2023-04-26T09:58:16.853Z,672.00
2023-04-26T09:59:16.895Z,680.00
2023-04-26T10:00:16.855Z,700.00
2023-04-26T10:01:18.017Z,701.00
2023-04-26T10:02:17.896Z,740.00
2023-04-26T10:03:16.944Z,735.00
2023-04-26T10:04:17.926Z,757.00
2023-04-26T10:05:17.816Z,747.00
2023-04-26T10:06:16.838Z,766.00
2023-04-26T10:07:17.871Z,757.00
2023-04-26T10:08:17.896Z,769.00
2023-04-26T10:09:19.007Z,774.00
2023-04-26T10:10:18.076Z,773.00
2023-04-26T10:11:18.058Z,784.00
2023-04-26T10:12:17.100Z,786.00
2023-04-26T10:13:18.218Z,797.00
2023-04-26T10:14:18.187Z,777.00
2023-04-26T10:15:18.218Z,806.00
2023-04-26T10:16:18.379Z,810.00
2023-04-26T10:17:18.300Z,811.00
2023-04-26T10:18:18.388Z,814.00
2023-04-26T10:19:17.623Z,820.00
2023-04-26T10:20:17.537Z,818.00
2023-04-26T10:21:18.475Z,826.00
2023-04-26T10:22:18.563Z,815.00
2023-04-26T10:23:18.897Z,829.00
2023-04-26T10:24:33.123Z,853.00
2023-04-26T10:25:18.692Z,856.00
2023-04-26T10:26:18.593Z,863.00
2023-04-26T10:27:17.548Z,869.00
2023-04-26T10:28:17.601Z,870.00
2023-04-26T10:29:18.575Z,887.00
2023-04-26T10:30:18.552Z,908.00
2023-04-26T10:31:17.565Z,921.00
2023-04-26T10:32:18.661Z,901.00
2023-04-26T10:33:17.597Z,897.00
2023-04-26T10:34:18.665Z,906.00
2023-04-26T10:35:17.534Z,917.00
2023-04-26T10:36:17.504Z,910.00
2023-04-26T10:37:18.504Z,919.00
2023-04-26T10:38:17.513Z,927.00
2023-04-26T10:39:18.503Z,942.00
2023-04-26T10:40:18.583Z,950.00
2023-04-26T10:41:18.472Z,940.00
2023-04-26T10:42:18.463Z,954.00
2023-04-26T10:43:18.492Z,943.00
2023-04-26T10:44:17.480Z,941.00
2023-04-26T10:45:18.451Z,915.00
2023-04-26T10:46:18.500Z,816.00
2023-04-26T10:47:18.490Z,846.00
2023-04-26T10:48:18.513Z,873.00
2023-04-26T10:49:17.424Z,802.00
2023-04-26T10:50:18.579Z,845.00
2023-04-26T10:51:18.413Z,814.00
2023-04-26T10:52:18.451Z,733.00
2023-04-26T10:53:17.443Z,668.00
2023-04-26T10:54:18.430Z,656.00
2023-04-26T10:55:18.382Z,640.00
2023-04-26T10:56:18.369Z,652.00
2023-04-26T10:57:17.390Z,612.00
2023-04-26T10:58:32.135Z,615.00
2023-04-26T10:59:36.113Z,616.00
2023-04-26T11:00:18.388Z,615.00
2023-04-26T11:01:18.418Z,602.00
2023-04-26T11:02:19.515Z,585.00
2023-04-26T11:03:17.505Z,576.00
2023-04-26T11:04:18.492Z,509.00
2023-04-26T11:05:17.349Z,556.00
2023-04-26T11:06:18.590Z,504.00
2023-04-26T11:07:18.331Z,558.00
2023-04-26T11:08:18.351Z,527.00
2023-04-26T11:09:18.341Z,541.00
2023-04-26T11:10:18.373Z,543.00
2023-04-26T11:11:19.003Z,543.00
2023-04-26T11:12:18.324Z,518.00
2023-04-26T11:13:18.289Z,508.00
2023-04-26T11:14:18.299Z,506.00
2023-04-26T11:15:20.006Z,514.00
2023-04-26T11:16:18.561Z,500.00
2023-04-26T11:17:18.548Z,510.00
2023-04-26T11:18:18.597Z,511.00
2023-04-26T11:19:17.583Z,502.00
2023-04-26T11:20:18.705Z,516.00
2023-04-26T11:21:17.768Z,486.00
2023-04-26T11:22:17.793Z,510.00
2023-04-26T11:23:18.844Z,525.00
2023-04-26T11:24:18.868Z,518.00
2023-04-26T11:25:18.930Z,495.00
2023-04-26T11:26:18.966Z,500.00
2023-04-26T11:27:18.975Z,561.00
2023-04-26T11:28:17.983Z,574.00
2023-04-26T11:29:17.996Z,580.00
2023-04-26T11:30:19.158Z,569.00
2023-04-26T11:31:19.288Z,515.00
2023-04-26T11:32:17.994Z,448.00
2023-04-26T11:33:18.042Z,519.00
2023-04-26T11:34:18.079Z,576.00
2023-04-26T11:35:19.169Z,615.00
2023-04-26T11:36:19.135Z,604.00
2023-04-26T11:37:19.131Z,607.00
2023-04-26T11:38:18.190Z,609.00
2023-04-26T11:39:18.204Z,608.00
2023-04-26T11:40:19.272Z,611.00
2023-04-26T11:41:19.317Z,619.00
2023-04-26T11:42:19.533Z,630.00
2023-04-26T11:43:18.474Z,639.00
2023-04-26T11:44:18.484Z,649.00
2023-04-26T11:45:18.510Z,653.00
2023-04-26T11:46:19.615Z,659.00
2023-04-26T11:47:19.592Z,707.00
2023-04-26T11:48:19.717Z,729.00
2023-04-26T11:49:18.654Z,747.00
2023-04-26T11:50:18.742Z,756.00
2023-04-26T11:51:19.747Z,766.00
2023-04-26T11:52:18.796Z,753.00
2023-04-26T11:53:19.830Z,779.00
2023-04-26T11:54:19.866Z,791.00
2023-04-26T11:55:18.893Z,792.00
2023-04-26T11:56:19.987Z,805.00
2023-04-26T11:57:18.971Z,808.00
2023-04-26T11:58:19.157Z,795.00
2023-04-26T11:59:20.048Z,817.00
2023-04-26T12:00:19.108Z,825.00
2023-04-26T12:01:20.152Z,834.00
2023-04-26T12:02:20.269Z,822.00
2023-04-26T12:03:20.565Z,828.00
2023-04-26T12:04:19.428Z,845.00
2023-04-26T12:05:19.385Z,870.00
2023-04-26T12:06:20.351Z,853.00
2023-04-26T12:07:19.408Z,868.00
2023-04-26T12:08:19.450Z,867.00
2023-04-26T12:09:20.512Z,874.00
2023-04-26T12:10:19.575Z,875.00
2023-04-26T12:11:19.591Z,889.00
2023-04-26T12:12:20.652Z,891.00
2023-04-26T12:13:20.699Z,898.00
2023-04-26T12:14:20.823Z,882.00
2023-04-26T12:15:20.809Z,903.00
2023-04-26T12:16:26.438Z,899.00
2023-04-26T12:17:20.958Z,900.00
2023-04-26T12:18:20.942Z,906.00
2023-04-26T12:19:19.840Z,914.00
2023-04-26T12:20:20.815Z,919.00
2023-04-26T12:21:20.843Z,941.00
2023-04-26T12:22:20.817Z,931.00
2023-04-26T12:23:20.792Z,948.00
2023-04-26T12:24:20.879Z,953.00
2023-04-26T12:25:20.802Z,948.00
2023-04-26T12:26:20.803Z,957.00
2023-04-26T12:27:20.766Z,965.00
2023-04-26T12:28:19.788Z,956.00
2023-04-26T12:29:19.783Z,961.00
2023-04-26T12:30:20.778Z,966.00
2023-04-26T12:31:20.786Z,986.00
2023-04-26T12:32:22.467Z,985.00
2023-04-26T12:33:20.846Z,987.00
2023-04-26T12:34:20.731Z,985.00
2023-04-26T12:35:20.727Z,987.00
2023-04-26T12:36:20.702Z,986.00
2023-04-26T12:37:20.716Z,994.00
2023-04-26T12:38:20.691Z,987.00
2023-04-26T12:39:20.702Z,995.00
2023-04-26T12:40:20.749Z,993.00
2023-04-26T12:41:20.699Z,990.00
2023-04-26T12:42:20.669Z,1004.00
2023-04-26T12:43:20.660Z,1001.00
2023-04-26T12:44:22.510Z,992.00
2023-04-26T12:45:20.646Z,993.00
2023-04-26T12:46:20.692Z,997.00
2023-04-26T12:47:20.679Z,1001.00
2023-04-26T12:48:20.836Z,1016.00
2023-04-26T12:49:20.634Z,1024.00
2023-04-26T12:50:20.619Z,1025.00
2023-04-26T12:51:20.604Z,1024.00
2023-04-26T12:52:20.585Z,1023.00
2023-04-26T12:53:20.587Z,1022.00
2023-04-26T12:54:19.649Z,1035.00
2023-04-26T12:55:19.600Z,1026.00
2023-04-26T12:56:20.573Z,1033.00
2023-04-26T12:57:20.576Z,1031.00
2023-04-26T12:58:19.556Z,1030.00
2023-04-26T12:59:20.563Z,1032.00
2023-04-26T13:00:19.558Z,1064.00
2023-04-26T13:01:20.680Z,1048.00
2023-04-26T13:02:20.628Z,1036.00
2023-04-26T13:03:20.683Z,1040.00
2023-04-26T13:04:20.777Z,1041.00
2023-04-26T13:05:19.517Z,1052.00
2023-04-26T13:06:19.511Z,1038.00
2023-04-26T13:07:20.513Z,1042.00
2023-04-26T13:08:19.510Z,1047.00
2023-04-26T13:09:20.522Z,1050.00
2023-04-26T13:10:20.500Z,1058.00
2023-04-26T13:11:20.477Z,1063.00
2023-04-26T13:12:20.450Z,1057.00
2023-04-26T13:13:22.051Z,1060.00
2023-04-26T13:14:20.460Z,1061.00
2023-04-26T13:15:20.436Z,1062.00
2023-04-26T13:16:20.495Z,1063.00
2023-04-26T13:17:19.443Z,1065.00
2023-04-26T13:18:20.450Z,1066.00
2023-04-26T13:19:20.404Z,1073.00
2023-04-26T13:20:19.443Z,1075.00
2023-04-26T13:21:19.414Z,1070.00
2023-04-26T13:22:20.394Z,1064.00
2023-04-26T13:23:20.393Z,1074.00
2023-04-26T13:24:19.453Z,1069.00
2023-04-26T13:25:20.377Z,1067.00
2023-04-26T13:26:19.379Z,1069.00
2023-04-26T13:27:20.355Z,1073.00
2023-04-26T13:28:20.406Z,1051.00
2023-04-26T13:29:20.336Z,1072.00
2023-04-26T13:30:20.353Z,1076.00
2023-04-26T13:31:20.443Z,1075.00
2023-04-26T13:32:19.350Z,1065.00
2023-04-26T13:33:20.341Z,1066.00
2023-04-26T13:34:20.424Z,1081.00
2023-04-26T13:35:20.319Z,1079.00
2023-04-26T13:36:20.293Z,1067.00
2023-04-26T13:37:20.046Z,1069.00
2023-04-26T13:38:19.343Z,1070.00
2023-04-26T13:39:20.341Z,1078.00
2023-04-26T13:40:19.397Z,1084.00
2023-04-26T13:41:20.412Z,1092.00
2023-04-26T13:42:19.411Z,1086.00
2023-04-26T13:43:19.497Z,1080.00
2023-04-26T13:44:19.484Z,1075.00
2023-04-26T13:45:20.536Z,1091.00
2023-04-26T13:46:20.625Z,1082.00
2023-04-26T13:47:19.587Z,1096.00
2023-04-26T13:48:19.603Z,1070.00
2023-04-26T13:49:20.607Z,1081.00
2023-04-26T13:50:20.764Z,1081.00
2023-04-26T13:51:19.659Z,1080.00
2023-04-26T13:52:19.693Z,1092.00
2023-04-26T13:53:20.724Z,1072.00
2023-04-26T13:54:20.762Z,1079.00
2023-04-26T13:55:20.829Z,1075.00
2023-04-26T13:56:19.818Z,1060.00
2023-04-26T13:57:20.829Z,1072.00
2023-04-26T13:58:19.872Z,1082.00
2023-04-26T13:59:19.888Z,1083.00
2023-04-26T14:00:19.937Z,1078.00
2023-04-26T14:01:20.057Z,1087.00
2023-04-26T14:02:21.233Z,1080.00
2023-04-26T14:03:21.242Z,1068.00
2023-04-26T14:04:21.143Z,1088.00
2023-04-26T14:05:23.425Z,1083.00
2023-04-26T14:06:20.087Z,1094.00
2023-04-26T14:07:21.071Z,1104.00
2023-04-26T14:08:21.063Z,1094.00
2023-04-26T14:09:21.085Z,1071.00
2023-04-26T14:10:20.042Z,1083.00
2023-04-26T14:11:21.032Z,1080.00
2023-04-26T14:12:21.031Z,1086.00
2023-04-26T14:13:20.020Z,1064.00
2023-04-26T14:14:21.053Z,1077.00
2023-04-26T14:15:21.014Z,1085.00
2023-04-26T14:16:20.065Z,1082.00
2023-04-26T14:17:20.995Z,1085.00
2023-04-26T14:18:19.984Z,1070.00
2023-04-26T14:19:20.969Z,1082.00
2023-04-26T14:20:20.034Z,1074.00
2023-04-26T14:21:19.984Z,1074.00
2023-04-26T14:22:20.967Z,1081.00
2023-04-26T14:23:20.959Z,1073.00
2023-04-26T14:24:19.947Z,1086.00
2023-04-26T14:25:20.105Z,1079.00
2023-04-26T14:26:19.928Z,1090.00
2023-04-26T14:27:19.920Z,1067.00
2023-04-26T14:28:20.943Z,1077.00
2023-04-26T14:29:19.912Z,1072.00
2023-04-26T14:30:19.925Z,1075.00
2023-04-26T14:31:20.925Z,1093.00
2023-04-26T14:32:19.899Z,1081.00
2023-04-26T14:33:22.097Z,1077.00
2023-04-26T14:34:20.876Z,1078.00
2023-04-26T14:35:20.082Z,1078.00
2023-04-26T14:36:20.883Z,1079.00
2023-04-26T14:37:20.931Z,1084.00
2023-04-26T14:38:20.860Z,1086.00
2023-04-26T14:39:21.686Z,1070.00
2023-04-26T14:40:20.893Z,1071.00
2023-04-26T14:42:43.153Z,500.00
2023-04-26T14:45:02.130Z,500.00
2023-04-26T14:47:18.644Z,500.00
2023-04-26T14:51:10.425Z,500.00
2023-04-26T14:53:36.870Z,500.00
2023-04-26T14:54:28.952Z,500.00
2023-04-26T14:58:19.384Z,500.00
2023-04-26T15:00:49.573Z,500.00
2023-04-26T15:03:11.375Z,500.00
2023-04-26T15:07:02.088Z,500.00
2023-04-26T15:10:56.452Z,500.00
2023-04-26T15:13:20.845Z,500.00
2023-04-26T15:16:33.689Z,500.00
2023-04-26T15:20:13.659Z,500.00
2023-04-26T15:22:38.521Z,500.00
2023-04-26T15:23:38.295Z,500.00
2023-04-26T15:25:58.589Z,500.00
2023-04-26T15:28:17.913Z,500.00
